Terminal Aerodrome Forecast
Issued by NWS Denver/Boulder, CO

Current Version | Previous Version | Text Only | Print | Product List | Glossary On
Versions: 1 2 3 4 5 6 7 8 9 10 11 12 13 14 15 16 17 18 19 20 21 22 23 24 25 26 27 28 29 30 31 32 33 34 35 36 37 38 39 40 41 42 43 44 45 46 47 48 49 50
000
FTUS45 KBOU 270535
TAFDEN
TAF
KDEN 270535Z 2706/2812 20010KT P6SM BKN180
     FM271500 VRB06KT P6SM SCT220
     FM271900 15012KT P6SM FEW100 SCT220
     FM272100 16016G27KT P6SM FEW100 SCT220
     FM280200 10015G25KT P6SM FEW100 SCT150 BKN220
     FM280600 02010KT P6SM SCT020 BKN050
     FM281000 33008KT P6SM BKN020=

USA.gov is the U.S. government's official web portal to all federal, state and local government web resources and services.